createdAt,value
2018-12-21T00:00:04.137Z,7.73
2018-12-21T00:02:36.767Z,7.15
2018-12-21T00:05:07.607Z,12.33
2018-12-21T00:07:38.861Z,19.13
2018-12-21T00:10:09.598Z,11.67
2018-12-21T00:12:40.447Z,8.77
2018-12-21T00:15:11.379Z,9.50
2018-12-21T00:17:42.767Z,8.97
2018-12-21T00:20:14.588Z,8.63
2018-12-21T00:22:45.743Z,6.80
2018-12-21T00:25:16.482Z,5.97
2018-12-21T00:27:47.283Z,6.40
2018-12-21T00:30:22.801Z,6.40
2018-12-21T00:32:58.417Z,6.45
2018-12-21T00:35:33.817Z,6.10
2018-12-21T00:38:09.550Z,5.23
2018-12-21T00:40:45.238Z,5.57
2018-12-21T00:43:20.997Z,5.63
2018-12-21T00:45:57.624Z,6.03
2018-12-21T00:48:28.422Z,6.87
2018-12-21T00:50:59.117Z,5.70
2018-12-21T00:53:30.097Z,8.20
2018-12-21T00:56:00.792Z,6.33
2018-12-21T00:58:31.598Z,5.73
2018-12-21T01:01:02.505Z,4.90
2018-12-21T01:03:33.447Z,5.13
2018-12-21T01:06:04.107Z,5.35
2018-12-21T01:08:34.992Z,7.03
2018-12-21T01:11:05.803Z,5.60
2018-12-21T01:13:38.744Z,4.45
2018-12-21T01:16:09.492Z,6.83
2018-12-21T01:18:41.307Z,5.08
2018-12-21T01:21:12.812Z,5.17
2018-12-21T01:23:43.717Z,5.70
2018-12-21T01:26:14.447Z,4.77
2018-12-21T01:28:45.346Z,6.57
2018-12-21T01:31:16.032Z,3.47
2018-12-21T01:33:46.817Z,5.33
2018-12-21T01:36:17.492Z,5.03
2018-12-21T01:38:48.226Z,4.47
2018-12-21T01:41:18.901Z,6.30
2018-12-21T01:43:49.676Z,6.65
2018-12-21T01:46:20.398Z,6.27
2018-12-21T01:48:51.180Z,3.97
2018-12-21T01:51:21.847Z,6.37
2018-12-21T01:53:52.752Z,7.67
2018-12-21T01:56:23.457Z,4.40
2018-12-21T01:58:54.317Z,5.80
2018-12-21T02:01:25.015Z,4.40
2018-12-21T02:03:55.817Z,4.90
2018-12-21T02:06:26.507Z,4.73
2018-12-21T02:08:57.328Z,4.80
2018-12-21T02:11:28.084Z,5.20
2018-12-21T02:13:59.938Z,4.40
2018-12-21T02:16:30.653Z,4.60
2018-12-21T02:19:01.818Z,4.63
2018-12-21T02:21:32.543Z,7.03
2018-12-21T02:24:03.546Z,6.10
2018-12-21T02:26:34.203Z,6.00
2018-12-21T02:29:04.993Z,6.77
2018-12-21T02:31:35.653Z,6.00
2018-12-21T02:34:06.443Z,8.30
2018-12-21T02:36:37.290Z,8.70
2018-12-21T02:39:08.723Z,6.27
2018-12-21T02:41:39.394Z,8.03
2018-12-21T02:44:10.194Z,6.17
2018-12-21T02:46:41.033Z,6.03
2018-12-21T02:49:11.760Z,5.83
2018-12-21T02:51:42.803Z,5.20
2018-12-21T02:54:13.673Z,4.63
2018-12-21T02:56:44.455Z,5.00
2018-12-21T02:59:15.203Z,5.23
2018-12-21T03:01:45.919Z,7.23
2018-12-21T03:19:21.972Z,4.80
2018-12-21T03:21:52.676Z,4.53
2018-12-21T03:24:23.518Z,6.40
2018-12-21T03:26:54.243Z,5.30
2018-12-21T03:29:25.072Z,7.10
2018-12-21T03:31:55.784Z,6.70
2018-12-21T03:34:26.530Z,7.20
2018-12-21T03:36:57.283Z,8.70
2018-12-21T03:39:27.989Z,7.10
2018-12-21T03:41:59.785Z,9.67
2018-12-21T03:44:30.489Z,12.07
2018-12-21T03:47:02.459Z,5.97
2018-12-21T03:49:33.329Z,6.83
2018-12-21T03:52:04.083Z,6.75
2018-12-21T03:54:34.739Z,5.23
2018-12-21T03:57:05.516Z,7.83
2018-12-21T03:59:36.288Z,6.90
2018-12-21T04:02:07.300Z,8.00
2018-12-21T04:04:37.995Z,6.53
2018-12-21T04:07:08.804Z,5.47
2018-12-21T04:09:39.485Z,5.67
2018-12-21T04:12:10.183Z,5.37
2018-12-21T04:14:40.886Z,5.13
2018-12-21T04:17:11.628Z,4.97
2018-12-21T04:19:42.863Z,4.27
2018-12-21T04:22:13.732Z,3.70
2018-12-21T04:24:44.978Z,4.33
2018-12-21T04:27:15.618Z,2.67
2018-12-21T04:29:46.364Z,2.53
2018-12-21T04:32:17.024Z,2.30
2018-12-21T04:34:47.978Z,2.33
2018-12-21T04:37:18.904Z,2.27
2018-12-21T04:39:49.664Z,2.37
2018-12-21T04:42:20.333Z,2.40
2018-12-21T04:44:51.103Z,3.55
2018-12-21T04:47:21.748Z,2.43
2018-12-21T04:49:52.503Z,3.37
2018-12-21T04:52:23.575Z,3.90
2018-12-21T04:54:54.299Z,4.33
2018-12-21T04:57:24.979Z,5.10
2018-12-21T04:59:55.748Z,3.97
2018-12-21T05:02:26.438Z,3.97
2018-12-21T05:04:57.218Z,4.47
2018-12-21T05:07:27.887Z,4.33
2018-12-21T05:09:58.659Z,4.90
2018-12-21T05:12:29.440Z,5.60
2018-12-21T05:15:00.259Z,5.00
2018-12-21T05:17:30.923Z,4.63
2018-12-21T05:20:02.069Z,5.33
2018-12-21T05:22:32.869Z,5.57
2018-12-21T05:25:03.658Z,4.80
2018-12-21T05:27:34.433Z,4.20
2018-12-21T05:30:05.318Z,5.50
2018-12-21T05:32:35.983Z,5.33
2018-12-21T05:35:06.864Z,4.90
2018-12-21T05:37:37.558Z,6.30
2018-12-21T05:40:08.665Z,8.03
2018-12-21T05:42:39.339Z,6.43
2018-12-21T05:45:10.188Z,4.80
2018-12-21T05:47:40.858Z,6.23
2018-12-21T05:50:11.624Z,5.27
2018-12-21T05:52:42.518Z,4.70
2018-12-21T05:55:13.322Z,6.03
2018-12-21T05:57:44.034Z,7.67
2018-12-21T06:00:14.859Z,5.80
2018-12-21T06:02:45.599Z,5.80
2018-12-21T06:05:16.364Z,6.17
2018-12-21T06:07:47.168Z,6.60
2018-12-21T06:10:17.968Z,7.93
2018-12-21T06:12:48.660Z,8.40
2018-12-21T06:15:19.418Z,7.13
2018-12-21T06:17:50.099Z,8.20
2018-12-21T06:20:21.245Z,9.03
2018-12-21T06:22:52.243Z,7.50
2018-12-21T06:25:23.040Z,7.77
2018-12-21T06:27:53.773Z,6.43
2018-12-21T06:30:24.543Z,6.53
2018-12-21T06:32:55.258Z,8.10
2018-12-21T06:35:26.082Z,6.13
2018-12-21T06:37:56.853Z,7.67
2018-12-21T06:40:27.734Z,6.23
2018-12-21T06:42:58.463Z,7.50
2018-12-21T06:45:29.243Z,5.27
2018-12-21T06:47:59.964Z,7.77
2018-12-21T06:50:30.887Z,7.37
2018-12-21T06:53:01.758Z,5.40
2018-12-21T06:55:32.709Z,6.07
2018-12-21T06:58:03.638Z,5.73
2018-12-21T07:00:34.579Z,5.47
2018-12-21T07:03:05.363Z,5.92
2018-12-21T07:05:36.339Z,4.93
2018-12-21T07:08:07.138Z,5.80
2018-12-21T07:10:38.061Z,5.47
2018-12-21T07:13:08.883Z,5.73
2018-12-21T07:15:40.069Z,6.43
2018-12-21T07:18:10.808Z,8.23
2018-12-21T07:20:42.070Z,6.87
2018-12-21T07:23:12.983Z,5.17
2018-12-21T07:25:43.803Z,5.77
2018-12-21T07:28:14.587Z,5.43
2018-12-21T07:30:45.403Z,5.87
2018-12-21T07:33:16.138Z,6.03
2018-12-21T07:35:47.058Z,5.00
2018-12-21T07:38:17.843Z,4.37
2018-12-21T07:40:49.288Z,4.90
2018-12-21T07:43:20.018Z,5.17
2018-12-21T07:45:50.964Z,4.37
2018-12-21T07:48:21.779Z,4.60
2018-12-21T07:50:52.648Z,5.13
2018-12-21T07:53:23.644Z,5.08
2018-12-21T07:55:54.663Z,5.37
2018-12-21T07:58:25.519Z,5.90
2018-12-21T08:00:56.337Z,4.67
2018-12-21T08:03:27.392Z,4.27
2018-12-21T08:05:58.283Z,4.57
2018-12-21T08:08:29.157Z,4.80
2018-12-21T08:11:00.033Z,5.23
2018-12-21T08:13:30.802Z,5.40
2018-12-21T08:16:01.747Z,5.83
2018-12-21T08:18:32.537Z,8.07
2018-12-21T08:21:03.948Z,7.47
2018-12-21T08:23:34.941Z,7.40
2018-12-21T08:26:05.853Z,7.17
2018-12-21T08:28:36.707Z,7.93
2018-12-21T08:31:07.652Z,5.40
2018-12-21T08:33:39.083Z,7.53
2018-12-21T08:36:10.074Z,6.40
2018-12-21T08:38:40.940Z,7.97
2018-12-21T08:41:11.798Z,6.93
2018-12-21T08:43:42.882Z,6.93
2018-12-21T08:46:13.917Z,7.47
2018-12-21T08:48:45.108Z,6.97
2018-12-21T08:51:16.100Z,6.27
2018-12-21T08:53:52.466Z,5.60
2018-12-21T08:56:20.712Z,5.43
2018-12-21T08:58:51.582Z,5.80
2018-12-21T09:01:22.544Z,6.63
2018-12-21T09:03:53.532Z,5.73
2018-12-21T09:06:24.454Z,6.23
2018-12-21T09:08:55.257Z,6.57
2018-12-21T09:11:26.088Z,5.67
2018-12-21T09:13:56.917Z,6.80
2018-12-21T09:16:27.757Z,5.87
2018-12-21T09:18:58.573Z,4.70
2018-12-21T09:21:29.967Z,7.63
2018-12-21T09:24:01.093Z,5.53
2018-12-21T09:26:33.547Z,5.80
2018-12-21T09:29:04.322Z,4.33
2018-12-21T09:31:35.267Z,4.23
2018-12-21T09:34:06.293Z,4.73
2018-12-21T09:36:37.147Z,5.17
2018-12-21T09:39:08.811Z,4.87
2018-12-21T09:41:40.892Z,4.97
2018-12-21T09:44:11.607Z,4.90
2018-12-21T09:46:42.595Z,3.80
2018-12-21T09:49:14.181Z,5.60
2018-12-21T09:51:45.458Z,5.33
2018-12-21T09:54:16.932Z,5.13
2018-12-21T09:56:48.008Z,4.63
2018-12-21T09:59:19.081Z,4.33
2018-12-21T10:01:50.002Z,5.10
2018-12-21T10:04:20.842Z,3.97
2018-12-21T10:06:52.752Z,4.43
2018-12-21T10:09:23.507Z,4.35
2018-12-21T10:11:54.832Z,3.67
2018-12-21T10:14:26.897Z,3.63
2018-12-21T10:16:59.737Z,4.17
2018-12-21T10:19:34.367Z,4.03
2018-12-21T10:22:09.467Z,3.17
2018-12-21T10:24:45.243Z,3.13
2018-12-21T10:27:17.164Z,3.37
2018-12-21T10:30:07.592Z,3.30
2018-12-21T10:32:40.991Z,2.50
2018-12-21T10:35:12.332Z,3.07
2018-12-21T10:37:46.787Z,3.17
2018-12-21T10:40:20.301Z,2.80
2018-12-21T10:42:54.676Z,3.80
2018-12-21T10:45:27.887Z,3.57
2018-12-21T10:48:05.922Z,3.77
2018-12-21T10:50:36.843Z,3.87
2018-12-21T10:53:07.851Z,3.53
2018-12-21T10:55:38.867Z,3.53
2018-12-21T10:58:09.937Z,3.40
2018-12-21T11:00:40.876Z,4.43
2018-12-21T11:03:11.891Z,4.40
2018-12-21T11:05:42.821Z,4.60
2018-12-21T11:08:13.876Z,5.37
2018-12-21T11:10:45.894Z,5.10
2018-12-21T11:13:17.021Z,4.70
2018-12-21T11:15:47.978Z,4.80
2018-12-21T11:18:19.006Z,5.00
2018-12-21T11:20:49.872Z,4.93
2018-12-21T11:23:21.500Z,5.17
2018-12-21T11:25:53.317Z,5.47
2018-12-21T11:28:25.544Z,5.97
2018-12-21T11:30:56.812Z,6.40
2018-12-21T11:33:27.841Z,5.27
2018-12-21T11:35:58.671Z,6.70
2018-12-21T11:38:29.716Z,6.53
2018-12-21T11:41:00.625Z,6.08
2018-12-21T11:43:31.538Z,5.23
2018-12-21T11:46:02.424Z,5.53
2018-12-21T11:48:33.316Z,5.20
2018-12-21T11:51:04.172Z,5.47
2018-12-21T11:53:35.051Z,5.97
2018-12-21T11:56:06.011Z,5.33
2018-12-21T11:58:36.946Z,4.77
2018-12-21T12:01:07.817Z,4.93
2018-12-21T12:03:38.742Z,4.07
2018-12-21T12:06:09.587Z,4.80
2018-12-21T12:08:40.547Z,5.63
2018-12-21T12:11:11.314Z,5.10
2018-12-21T12:13:42.213Z,5.23
2018-12-21T12:16:12.976Z,4.93
2018-12-21T12:18:43.821Z,4.87
2018-12-21T12:21:14.691Z,4.80
2018-12-21T12:23:46.266Z,5.10
2018-12-21T12:26:17.201Z,4.37
2018-12-21T12:28:48.046Z,4.73
2018-12-21T12:31:18.851Z,4.23
2018-12-21T12:33:49.812Z,4.30
2018-12-21T12:36:20.732Z,4.70
2018-12-21T12:38:51.701Z,4.33
2018-12-21T12:41:22.472Z,4.80
2018-12-21T12:43:53.506Z,4.67
2018-12-21T12:46:24.358Z,5.00
2018-12-21T12:48:55.311Z,5.23
2018-12-21T12:51:26.116Z,4.57
2018-12-21T12:53:57.001Z,5.43
2018-12-21T12:56:27.783Z,4.80
2018-12-21T12:59:00.957Z,5.70
2018-12-21T13:01:31.986Z,4.73
2018-12-21T13:04:03.091Z,5.90
2018-12-21T13:06:33.987Z,4.73
2018-12-21T13:09:06.207Z,5.57
2018-12-21T13:11:37.231Z,5.40
2018-12-21T13:14:08.351Z,5.10
2018-12-21T13:16:39.226Z,6.43
2018-12-21T13:19:10.302Z,5.13
2018-12-21T13:21:41.521Z,5.20
2018-12-21T13:24:13.117Z,6.07
2018-12-21T13:26:44.327Z,6.20
2018-12-21T13:29:15.384Z,6.03
2018-12-21T13:31:46.337Z,6.30
2018-12-21T13:34:17.411Z,6.17
2018-12-21T13:36:48.532Z,7.20
2018-12-21T13:39:19.642Z,6.80
2018-12-21T13:41:50.378Z,6.70
2018-12-21T13:44:21.331Z,6.37
2018-12-21T13:46:52.212Z,5.37
2018-12-21T13:49:23.328Z,5.67
2018-12-21T13:51:54.331Z,6.17
2018-12-21T13:54:25.612Z,5.63
2018-12-21T13:56:57.706Z,6.90
2018-12-21T13:59:28.852Z,6.47
2018-12-21T14:01:59.928Z,6.33
2018-12-21T14:04:30.922Z,6.70
2018-12-21T14:07:01.952Z,6.40
2018-12-21T14:09:33.152Z,7.07
2018-12-21T14:12:04.248Z,5.93
2018-12-21T14:14:35.682Z,6.90
2018-12-21T14:17:07.027Z,6.35
2018-12-21T14:19:43.042Z,30.77
2018-12-21T14:22:14.251Z,7.93
2018-12-21T14:24:45.671Z,7.17
2018-12-21T14:27:16.781Z,7.60
2018-12-21T14:29:47.846Z,7.17
2018-12-21T14:32:18.939Z,6.90
2018-12-21T14:34:49.941Z,8.90
2018-12-21T14:37:21.507Z,8.83
2018-12-21T14:39:52.492Z,8.30
2018-12-21T14:42:23.412Z,8.80
2018-12-21T14:44:54.326Z,7.83
2018-12-21T14:47:25.435Z,7.80
2018-12-21T14:49:56.511Z,7.97
2018-12-21T14:52:27.638Z,7.07
2018-12-21T14:54:59.313Z,8.58
2018-12-21T14:57:30.484Z,8.53
2018-12-21T15:00:01.470Z,8.13
2018-12-21T15:02:32.447Z,9.10
2018-12-21T15:05:03.607Z,8.33
2018-12-21T15:07:34.523Z,8.03
2018-12-21T15:10:06.801Z,8.40
2018-12-21T15:12:37.872Z,7.87
2018-12-21T15:15:09.852Z,9.17
2018-12-21T15:17:40.817Z,9.50
2018-12-21T15:20:12.556Z,10.20
2018-12-21T15:22:43.547Z,10.30
2018-12-21T15:25:15.170Z,11.97
2018-12-21T15:27:46.177Z,10.60
2018-12-21T15:30:20.137Z,11.23
2018-12-21T15:32:51.090Z,10.77
2018-12-21T15:35:22.442Z,11.90
2018-12-21T15:37:53.562Z,10.63
2018-12-21T15:40:24.558Z,10.80
2018-12-21T15:42:55.632Z,10.60
2018-12-21T15:45:26.724Z,9.47
2018-12-21T15:47:57.737Z,8.33
2018-12-21T15:50:28.862Z,9.00
2018-12-21T15:53:00.473Z,7.57
2018-12-21T15:55:31.433Z,8.67
2018-12-21T15:58:02.653Z,8.33
2018-12-21T16:00:33.717Z,10.03
2018-12-21T16:03:06.092Z,9.63
2018-12-21T16:05:37.252Z,11.30
2018-12-21T16:08:08.207Z,9.78
2018-12-21T16:10:39.173Z,9.63
2018-12-21T16:13:16.677Z,9.67
2018-12-21T16:15:47.768Z,11.00
2018-12-21T16:18:18.547Z,10.50
2018-12-21T16:20:52.893Z,10.80
2018-12-21T16:23:23.658Z,10.57
2018-12-21T16:26:03.256Z,9.77
2018-12-21T16:28:28.294Z,9.77
2018-12-21T16:30:59.178Z,11.30
2018-12-21T16:33:30.032Z,11.20
2018-12-21T16:36:01.333Z,11.78
2018-12-21T16:38:32.564Z,11.20
2018-12-21T16:41:04.405Z,10.40
2018-12-21T16:43:35.683Z,9.90
2018-12-21T16:46:06.832Z,10.28
2018-12-21T16:48:37.617Z,10.40
2018-12-21T16:51:08.487Z,8.90
2018-12-21T16:53:39.632Z,9.20
2018-12-21T16:56:12.633Z,10.08
2018-12-21T16:58:43.895Z,9.97
2018-12-21T17:01:14.853Z,9.37
2018-12-21T17:03:45.852Z,11.53
2018-12-21T17:06:16.818Z,11.10
2018-12-21T17:08:47.715Z,10.13
2018-12-21T17:11:18.897Z,10.40
2018-12-21T17:13:49.812Z,10.20
2018-12-21T17:16:27.062Z,9.70
2018-12-21T17:18:58.083Z,9.90
2018-12-21T17:21:29.093Z,9.67
2018-12-21T17:24:00.001Z,9.93
2018-12-21T17:26:31.398Z,8.63
2018-12-21T17:29:02.723Z,9.68
2018-12-21T17:31:33.747Z,9.87
2018-12-21T17:34:04.751Z,9.63
2018-12-21T17:36:35.752Z,10.97
2018-12-21T17:39:08.882Z,9.28
2018-12-21T17:41:39.787Z,8.25
2018-12-21T17:44:10.568Z,9.20
2018-12-21T17:46:41.532Z,8.10
2018-12-21T17:49:12.392Z,9.40
2018-12-21T17:51:43.583Z,8.30
2018-12-21T17:54:15.093Z,9.37
2018-12-21T17:56:46.122Z,9.63
2018-12-21T17:59:17.603Z,10.13
2018-12-21T18:01:48.983Z,8.73
2018-12-21T18:04:26.140Z,9.60
2018-12-21T18:06:57.277Z,9.67
2018-12-21T18:09:32.503Z,10.03
2018-12-21T18:12:03.702Z,8.88
2018-12-21T18:14:34.642Z,10.17
2018-12-21T18:17:06.397Z,11.43
2018-12-21T18:19:37.427Z,11.97
2018-12-21T18:22:14.838Z,11.27
2018-12-21T18:24:47.164Z,11.77
2018-12-21T18:27:18.723Z,9.97
2018-12-21T18:29:49.842Z,10.47
2018-12-21T18:32:25.642Z,9.88
2018-12-21T18:34:58.743Z,9.87
2018-12-21T18:37:30.247Z,8.57
2018-12-21T18:40:01.309Z,8.90
2018-12-21T18:42:32.602Z,8.87
2018-12-21T18:45:04.348Z,8.93
2018-12-21T18:47:35.592Z,8.90
2018-12-21T18:50:06.668Z,11.43
2018-12-21T18:52:38.947Z,11.30
2018-12-21T18:55:11.987Z,11.73
2018-12-21T18:57:43.317Z,10.77
2018-12-21T19:00:16.557Z,10.80
2018-12-21T19:02:48.834Z,10.43
2018-12-21T19:05:19.843Z,9.63
2018-12-21T19:07:51.097Z,9.73
2018-12-21T19:10:22.107Z,9.83
2018-12-21T19:12:53.295Z,9.53
2018-12-21T19:15:24.418Z,10.37
2018-12-21T19:17:55.580Z,9.77
2018-12-21T19:20:26.658Z,10.50
2018-12-21T19:22:57.838Z,10.73
2018-12-21T19:25:28.808Z,9.77
2018-12-21T19:28:00.604Z,8.40
2018-12-21T19:30:31.872Z,11.47
2018-12-21T19:33:03.018Z,10.50
2018-12-21T19:35:33.993Z,10.80
2018-12-21T19:38:05.592Z,12.00
2018-12-21T19:40:36.733Z,11.17
2018-12-21T19:43:08.150Z,10.73
2018-12-21T19:45:39.173Z,9.90
2018-12-21T19:48:10.301Z,9.80
2018-12-21T19:50:41.458Z,10.10
2018-12-21T19:53:12.873Z,11.30
2018-12-21T19:55:54.883Z,10.50
2018-12-21T19:58:27.252Z,9.63
2018-12-21T20:00:58.237Z,10.13
2018-12-21T20:03:29.357Z,10.33
2018-12-21T20:06:00.532Z,9.97
2018-12-21T20:08:31.798Z,11.43
2018-12-21T20:11:02.949Z,11.03
2018-12-21T20:13:34.566Z,10.27
2018-12-21T20:16:06.432Z,10.80
2018-12-21T20:18:37.457Z,11.53
2018-12-21T20:21:08.602Z,11.20
2018-12-21T20:23:39.844Z,10.63
2018-12-21T20:26:10.943Z,10.23
2018-12-21T20:28:42.443Z,11.77
2018-12-21T20:31:14.081Z,12.43
2018-12-21T20:33:45.822Z,10.97
2018-12-21T20:36:16.882Z,11.60
2018-12-21T20:38:48.462Z,14.80
2018-12-21T20:41:19.472Z,14.07
2018-12-21T20:43:50.597Z,12.70
2018-12-21T20:46:21.567Z,12.47
2018-12-21T20:48:53.505Z,11.97
2018-12-21T20:51:24.422Z,12.37
2018-12-21T20:53:55.541Z,11.70
2018-12-21T20:56:26.471Z,10.93
2018-12-21T20:59:02.951Z,11.53
2018-12-21T21:01:34.261Z,11.43
2018-12-21T21:04:06.486Z,11.17
2018-12-21T21:06:37.696Z,12.17
2018-12-21T21:09:11.256Z,11.63
2018-12-21T21:11:42.526Z,11.93
2018-12-21T21:14:14.976Z,12.25
2018-12-21T21:16:46.006Z,11.40
2018-12-21T21:19:17.166Z,11.33
2018-12-21T21:21:48.300Z,12.37
2018-12-21T21:24:19.395Z,12.10
2018-12-21T21:26:50.400Z,12.63
2018-12-21T21:29:21.910Z,11.37
2018-12-21T21:31:52.960Z,11.83
2018-12-21T21:34:24.050Z,11.73
2018-12-21T21:36:55.280Z,11.20
2018-12-21T21:39:26.308Z,11.33
2018-12-21T21:41:57.234Z,11.10
2018-12-21T21:44:28.385Z,12.33
2018-12-21T21:46:59.375Z,12.77
2018-12-21T21:49:30.476Z,13.10
2018-12-21T21:52:01.415Z,13.60
2018-12-21T21:54:32.360Z,13.23
2018-12-21T21:57:04.525Z,11.50
2018-12-21T21:59:35.615Z,12.33
2018-12-21T22:02:06.846Z,12.70
2018-12-21T22:04:37.790Z,13.43
2018-12-21T22:07:08.960Z,12.45
2018-12-21T22:09:40.107Z,13.00
2018-12-21T22:12:11.104Z,13.70
2018-12-21T22:14:45.255Z,12.97
2018-12-21T22:17:16.180Z,11.90
2018-12-21T22:19:47.269Z,12.87
2018-12-21T22:22:18.156Z,12.17
2018-12-21T22:24:49.184Z,12.43
2018-12-21T22:27:20.259Z,11.77
2018-12-21T22:29:51.609Z,13.23
2018-12-21T22:32:22.884Z,13.22
2018-12-21T22:34:53.959Z,13.13
2018-12-21T22:37:24.975Z,12.03
2018-12-21T22:39:56.459Z,14.40
2018-12-21T22:42:27.453Z,13.57
2018-12-21T22:44:58.513Z,12.40
2018-12-21T22:47:31.199Z,12.90
2018-12-21T22:50:02.177Z,13.80
2018-12-21T22:52:33.209Z,12.47
2018-12-21T22:55:04.970Z,14.33
2018-12-21T22:57:36.033Z,13.50
2018-12-21T23:00:13.264Z,13.43
2018-12-21T23:02:44.434Z,12.60
2018-12-21T23:05:16.373Z,13.08
2018-12-21T23:07:47.443Z,13.43
2018-12-21T23:10:18.673Z,13.78
2018-12-21T23:12:49.643Z,14.37
2018-12-21T23:15:20.685Z,14.00
2018-12-21T23:17:51.618Z,12.93
2018-12-21T23:20:22.657Z,12.40
2018-12-21T23:22:53.528Z,12.93
2018-12-21T23:25:24.612Z,13.67
2018-12-21T23:27:55.488Z,12.63
2018-12-21T23:30:27.088Z,12.70
2018-12-21T23:32:58.083Z,13.10
2018-12-21T23:35:29.367Z,14.10
2018-12-21T23:38:00.248Z,13.97
2018-12-21T23:40:31.138Z,14.07
2018-12-21T23:43:02.058Z,13.43
2018-12-21T23:45:33.238Z,13.72
2018-12-21T23:48:04.128Z,13.57
2018-12-21T23:50:35.013Z,12.90
2018-12-21T23:53:05.914Z,12.60
2018-12-21T23:55:36.783Z,14.43
2018-12-21T23:58:13.637Z,14.10
